createdAt,value
2016-11-26T00:00:32.136Z,62.08
2016-11-26T00:01:32.192Z,61.89
2016-11-26T00:02:32.489Z,62.18
2016-11-26T00:03:32.198Z,61.89
2016-11-26T00:04:32.236Z,62.37
2016-11-26T00:05:32.244Z,62.27
2016-11-26T00:06:32.563Z,61.8
2016-11-26T00:07:32.267Z,61.7
2016-11-26T00:08:32.621Z,62.08
2016-11-26T00:09:32.305Z,62.18
2016-11-26T00:10:32.639Z,62.18
2016-11-26T00:11:32.353Z,62.18
2016-11-26T00:12:32.360Z,62.37
2016-11-26T00:13:32.379Z,62.37
2016-11-26T00:14:32.715Z,62.37
2016-11-26T00:15:32.437Z,62.27
2016-11-26T00:16:32.436Z,62.18
2016-11-26T00:17:32.457Z,61.99
2016-11-26T00:18:32.497Z,62.37
2016-11-26T00:19:32.806Z,62.46
2016-11-26T00:20:32.827Z,62.08
2016-11-26T00:21:32.530Z,62.18
2016-11-26T00:22:32.863Z,62.18
2016-11-26T00:23:33.084Z,62.37
2016-11-26T00:24:32.585Z,61.99
2016-11-26T00:25:32.603Z,62.94
2016-11-26T00:26:32.938Z,62.18
2016-11-26T00:27:32.641Z,62.18
2016-11-26T00:28:32.658Z,62.37
2016-11-26T00:29:32.677Z,61.89
2016-11-26T00:30:33.019Z,62.27
2016-11-26T00:31:32.730Z,61.89
2016-11-26T00:32:32.731Z,62.18
2016-11-26T00:33:32.812Z,62.18
2016-11-26T00:34:33.084Z,62.27
2016-11-26T00:35:33.100Z,62.84
2016-11-26T00:36:32.806Z,62.75
2016-11-26T00:37:32.821Z,62.75
2016-11-26T00:38:32.840Z,62.75
2016-11-26T00:39:32.862Z,62.18
2016-11-26T00:40:32.879Z,62.56
2016-11-26T00:41:32.895Z,62.56
2016-11-26T00:42:32.915Z,62.56
2016-11-26T00:43:33.251Z,62.46
2016-11-26T00:44:33.271Z,62.84
2016-11-26T00:45:32.968Z,63.04
2016-11-26T00:46:33.304Z,62.94
2016-11-26T00:47:33.006Z,62.37
2016-11-26T00:48:33.340Z,62.65
2016-11-26T00:49:33.047Z,62.56
2016-11-26T00:50:33.068Z,62.56
2016-11-26T00:51:33.395Z,62.84
2016-11-26T00:52:33.125Z,62.46
2016-11-26T00:53:33.115Z,62.46
2016-11-26T00:54:33.137Z,62.56
2016-11-26T00:55:33.154Z,62.46
2016-11-26T00:56:33.171Z,63.32
2016-11-26T00:57:33.191Z,63.13
2016-11-26T00:58:33.524Z,62.56
2016-11-26T00:59:33.226Z,62.46
2016-11-26T01:00:33.245Z,62.75
2016-11-26T01:01:33.263Z,63.23
2016-11-26T01:02:33.282Z,63.23
2016-11-26T01:03:33.301Z,62.65
2016-11-26T01:04:33.330Z,62.37
2016-11-26T01:05:33.343Z,63.04
2016-11-26T01:06:33.354Z,62.56
2016-11-26T01:07:33.375Z,62.37
2016-11-26T01:08:33.708Z,63.32
2016-11-26T01:09:33.409Z,63.04
2016-11-26T01:10:33.743Z,62.94
2016-11-26T01:11:33.454Z,63.1
2016-11-26T01:12:33.783Z,62.72
2016-11-26T01:13:33.488Z,63.48
2016-11-26T01:14:33.504Z,64.24
2016-11-26T01:15:33.523Z,63.48
2016-11-26T01:16:33.538Z,63.29
2016-11-26T01:17:33.558Z,63.32
2016-11-26T01:18:33.579Z,63.29
2016-11-26T01:19:33.931Z,63.13
2016-11-26T01:20:33.623Z,63.51
2016-11-26T01:21:33.942Z,63.39
2016-11-26T01:22:33.648Z,62.91
2016-11-26T01:23:33.984Z,63.51
2016-11-26T01:24:34.002Z,63.32
2016-11-26T01:25:33.704Z,63.42
2016-11-26T01:26:34.059Z,63.86
2016-11-26T01:27:34.055Z,64.62
2016-11-26T01:28:33.759Z,63.96
2016-11-26T01:29:34.095Z,63.8
2016-11-26T01:30:34.112Z,63.99
2016-11-26T01:31:34.134Z,63.99
2016-11-26T01:32:33.829Z,63.7
2016-11-26T01:33:34.168Z,63.7
2016-11-26T01:34:33.867Z,63.7
2016-11-26T01:35:33.906Z,64.37
2016-11-26T01:36:34.240Z,63.7
2016-11-26T01:37:34.236Z,63.89
2016-11-26T01:38:33.941Z,64.28
2016-11-26T01:39:34.278Z,63.99
2016-11-26T01:40:33.983Z,64.37
2016-11-26T01:41:34.335Z,64.56
2016-11-26T01:42:34.033Z,64.28
2016-11-26T01:43:34.350Z,64.18
2016-11-26T01:44:34.367Z,63.67
2016-11-26T01:45:34.071Z,63.76
2016-11-26T01:46:34.416Z,63.8
2016-11-26T01:47:34.114Z,64.37
2016-11-26T01:48:34.439Z,64.09
2016-11-26T01:49:34.148Z,64.09
2016-11-26T01:50:34.481Z,63.67
2016-11-26T01:51:34.580Z,63.89
2016-11-26T01:52:34.217Z,63.89
2016-11-26T01:53:34.217Z,63.8
2016-11-26T01:54:34.601Z,64.34
2016-11-26T01:55:34.251Z,64.53
2016-11-26T01:56:34.587Z,64.91
2016-11-26T01:57:34.608Z,65.86
2016-11-26T01:58:34.622Z,65.86
2016-11-26T01:59:34.322Z,65.86
2016-11-26T02:00:34.341Z,64.91
2016-11-26T02:01:34.361Z,65.1
2016-11-26T02:02:34.419Z,65.1
2016-11-26T02:03:34.397Z,65
2016-11-26T02:04:34.418Z,65.48
2016-11-26T02:05:34.753Z,65.86
2016-11-26T02:06:34.453Z,66.05
2016-11-26T02:07:34.791Z,66.78
2016-11-26T02:08:34.492Z,66.69
2016-11-26T02:09:34.825Z,66.69
2016-11-26T02:10:34.524Z,66.05
2016-11-26T02:11:34.543Z,66.44
2016-11-26T02:12:34.560Z,66.31
2016-11-26T02:13:34.895Z,67.16
2016-11-26T02:14:34.595Z,67.16
2016-11-26T02:15:34.616Z,66.69
2016-11-26T02:16:34.951Z,66.21
2016-11-26T02:17:34.651Z,66.53
2016-11-26T02:18:34.988Z,66.72
2016-11-26T02:19:34.689Z,66.69
2016-11-26T02:20:34.752Z,66.78
2016-11-26T02:21:34.776Z,67.35
2016-11-26T02:22:34.742Z,67.16
2016-11-26T02:23:34.761Z,67.55
2016-11-26T02:24:34.798Z,67.45
2016-11-26T02:25:35.361Z,67.74
2016-11-26T02:26:34.954Z,67.83
2016-11-26T02:27:34.868Z,67.64
2016-11-26T02:28:35.060Z,68.02
2016-11-26T02:29:35.422Z,67.74
2016-11-26T02:30:34.891Z,67.64
2016-11-26T02:31:34.906Z,67.55
2016-11-26T02:32:35.274Z,67.83
2016-11-26T02:33:35.264Z,67.74
2016-11-26T02:34:35.276Z,67.16
2016-11-26T02:35:34.975Z,67.83
2016-11-26T02:36:35.002Z,67.77
2016-11-26T02:37:35.339Z,67.58
2016-11-26T02:38:35.032Z,66.82
2016-11-26T02:39:35.362Z,66.78
2016-11-26T02:40:35.068Z,67.55
2016-11-26T02:41:35.411Z,67.64
2016-11-26T02:42:35.483Z,67.83
2016-11-26T02:43:35.542Z,67.55
2016-11-26T02:44:35.287Z,67.07
2016-11-26T02:45:35.370Z,67.45
2016-11-26T02:46:35.240Z,66.97
2016-11-26T02:47:36.017Z,67.58
2016-11-26T02:48:35.243Z,67.2
2016-11-26T02:49:35.759Z,66.91
2016-11-26T02:50:35.804Z,66.63
2016-11-26T02:51:35.517Z,66.44
2016-11-26T02:52:35.628Z,65.96
2016-11-26T02:53:35.308Z,66.34
2016-11-26T02:54:35.648Z,66.24
2016-11-26T02:55:35.933Z,65.86
2016-11-26T02:56:35.793Z,65.77
2016-11-26T02:57:35.797Z,66.53
2016-11-26T02:58:35.550Z,66.63
2016-11-26T02:59:35.419Z,66.15
2016-11-26T03:00:35.901Z,66.72
2016-11-26T03:01:35.776Z,66.63
2016-11-26T03:02:35.748Z,65.86
2016-11-26T03:03:35.809Z,66.15
2016-11-26T03:04:35.505Z,66.05
2016-11-26T03:05:35.514Z,66.15
2016-11-26T03:06:35.851Z,65.86
2016-11-26T03:07:35.551Z,66.15
2016-11-26T03:08:35.570Z,65.77
2016-11-26T03:09:35.904Z,65.96
2016-11-26T03:10:35.922Z,65.96
2016-11-26T03:11:35.624Z,66.05
2016-11-26T03:12:35.956Z,66.24
2016-11-26T03:13:35.663Z,65.96
2016-11-26T03:14:35.993Z,65.67
2016-11-26T03:15:36.394Z,65.58
2016-11-26T03:16:35.716Z,66.44
2016-11-26T03:17:35.733Z,66.15
2016-11-26T03:18:35.751Z,65.67
2016-11-26T03:19:35.785Z,66.69
2016-11-26T03:20:35.787Z,66.88
2016-11-26T03:21:36.124Z,67
2016-11-26T03:22:35.820Z,66.63
2016-11-26T03:23:36.154Z,66.34
2016-11-26T03:24:35.859Z,66.72
2016-11-26T03:25:35.877Z,66.82
2016-11-26T03:26:35.895Z,67.35
2016-11-26T03:27:36.240Z,67
2016-11-26T03:28:36.245Z,66.44
2016-11-26T03:29:35.948Z,66.15
2016-11-26T03:30:36.282Z,66.44
2016-11-26T03:31:35.985Z,66.4
2016-11-26T03:32:36.318Z,66.15
2016-11-26T03:33:36.335Z,65.86
2016-11-26T03:34:36.037Z,66.88
2016-11-26T03:35:36.057Z,67.93
2016-11-26T03:36:36.392Z,67.83
2016-11-26T03:37:36.407Z,67.74
2016-11-26T03:38:36.113Z,67.83
2016-11-26T03:39:36.129Z,68.4
2016-11-26T03:40:36.147Z,68.4
2016-11-26T03:41:36.479Z,67.83
2016-11-26T03:42:36.499Z,68.21
2016-11-26T03:43:36.517Z,68.3
2016-11-26T03:44:36.216Z,68.21
2016-11-26T03:45:36.238Z,68.69
2016-11-26T03:46:36.255Z,68.59
2016-11-26T03:47:36.271Z,68.59
2016-11-26T03:48:36.294Z,68.5
2016-11-26T03:49:36.312Z,68.59
2016-11-26T03:50:36.639Z,68.3
2016-11-26T03:51:36.350Z,68.21
2016-11-26T03:52:36.674Z,68.3
2016-11-26T03:53:36.381Z,68.21
2016-11-26T03:54:36.711Z,68.4
2016-11-26T03:55:36.414Z,68.78
2016-11-26T03:56:36.434Z,68.02
2016-11-26T03:57:36.767Z,67.83
2016-11-26T03:58:36.469Z,67.93
2016-11-26T03:59:36.814Z,68.3
2016-11-26T04:00:36.505Z,68.02
2016-11-26T04:01:36.837Z,67.64
2016-11-26T04:02:36.540Z,68.4
2016-11-26T04:03:36.878Z,68.46
2016-11-26T04:04:36.892Z,68.21
2016-11-26T04:05:36.909Z,68.12
2016-11-26T04:06:36.612Z,68.3
2016-11-26T04:07:36.628Z,68.65
2016-11-26T04:08:36.649Z,68.56
2016-11-26T04:09:36.663Z,69.17
2016-11-26T04:10:36.685Z,68.78
2016-11-26T04:11:37.019Z,68.78
2016-11-26T04:12:37.039Z,68.56
2016-11-26T04:13:37.052Z,68.78
2016-11-26T04:14:36.752Z,68.69
2016-11-26T04:15:36.777Z,68.88
2016-11-26T04:16:36.788Z,68.02
2016-11-26T04:17:36.805Z,67.64
2016-11-26T04:18:37.159Z,68.02
2016-11-26T04:19:37.157Z,67.64
2016-11-26T04:20:37.172Z,68.02
2016-11-26T04:21:37.194Z,68.02
2016-11-26T04:22:36.895Z,67.16
2016-11-26T04:23:37.230Z,67.16
2016-11-26T04:24:36.962Z,66.97
2016-11-26T04:25:36.964Z,66.72
2016-11-26T04:26:36.978Z,66.72
2016-11-26T04:27:36.986Z,66.82
2016-11-26T04:28:37.003Z,66.34
2016-11-26T04:29:37.022Z,66.63
2016-11-26T04:30:37.040Z,66.44
2016-11-26T04:31:37.375Z,66.53
2016-11-26T04:32:37.075Z,66.53
2016-11-26T04:33:37.091Z,66.72
2016-11-26T04:34:37.111Z,65.77
2016-11-26T04:35:37.131Z,66.15
2016-11-26T04:36:37.146Z,65.77
2016-11-26T04:37:37.477Z,65.86
2016-11-26T04:38:37.185Z,65.29
2016-11-26T04:39:37.198Z,65.1
2016-11-26T04:40:37.533Z,65.29
2016-11-26T04:41:37.549Z,65.2
2016-11-26T04:42:37.569Z,64.91
2016-11-26T04:43:37.588Z,64.91
2016-11-26T04:44:37.292Z,65.29
2016-11-26T04:45:37.623Z,65.29
2016-11-26T04:46:37.325Z,64.81
2016-11-26T04:47:37.664Z,65.1
2016-11-26T04:48:37.678Z,65.77
2016-11-26T04:49:37.695Z,65.58
2016-11-26T04:50:37.713Z,65.77
2016-11-26T04:51:37.732Z,65.77
2016-11-26T04:52:37.748Z,65.58
2016-11-26T04:53:37.768Z,65.48
2016-11-26T04:54:37.469Z,65.77
2016-11-26T04:55:37.486Z,65.1
2016-11-26T04:56:37.503Z,65.1
2016-11-26T04:57:37.837Z,65.1
2016-11-26T04:58:37.544Z,65.1
2016-11-26T04:59:37.875Z,64.43
2016-11-26T05:00:37.889Z,65.29
2016-11-26T05:01:37.914Z,65.2
2016-11-26T05:02:37.932Z,64.62
2016-11-26T05:03:37.950Z,64.53
2016-11-26T05:04:37.653Z,65.1
2016-11-26T05:05:37.667Z,65.29
2016-11-26T05:06:37.687Z,65.86
2016-11-26T05:07:38.019Z,65.29
2016-11-26T05:08:38.037Z,65.48
2016-11-26T05:09:37.743Z,65.48
2016-11-26T05:10:37.761Z,65.29
2016-11-26T05:11:38.089Z,65.67
2016-11-26T05:12:37.791Z,65.86
2016-11-26T05:13:38.132Z,65.39
2016-11-26T05:14:37.831Z,65.77
2016-11-26T05:15:37.847Z,65.1
2016-11-26T05:16:37.863Z,65.1
2016-11-26T05:17:37.883Z,65
2016-11-26T05:18:37.906Z,65.29
2016-11-26T05:19:37.916Z,65.2
2016-11-26T05:20:37.937Z,64.81
2016-11-26T05:21:38.290Z,64.91
2016-11-26T05:22:37.970Z,64.53
2016-11-26T05:23:37.989Z,65.1
2016-11-26T05:24:38.010Z,65.1
2016-11-26T05:25:38.039Z,65.2
2016-11-26T05:26:38.049Z,65.48
2016-11-26T05:27:38.378Z,65.39
2016-11-26T05:28:38.414Z,66.15
2016-11-26T05:29:38.096Z,66.05
2016-11-26T05:30:38.431Z,65.86
2016-11-26T05:31:38.450Z,66.05
2016-11-26T05:32:38.161Z,65.96
2016-11-26T05:33:38.175Z,66.4
2016-11-26T05:34:38.502Z,66.5
2016-11-26T05:35:38.205Z,66.69
2016-11-26T05:36:38.537Z,66.31
2016-11-26T05:37:38.240Z,66.5
2016-11-26T05:38:38.259Z,66.53
2016-11-26T05:39:38.279Z,66.63
2016-11-26T05:40:38.608Z,67
2016-11-26T05:41:38.333Z,66.44
2016-11-26T05:42:38.330Z,66.34
2016-11-26T05:43:38.347Z,66.72
2016-11-26T05:44:38.363Z,66.34
2016-11-26T05:45:38.384Z,66.72
2016-11-26T05:46:38.399Z,66.78
2016-11-26T05:47:38.529Z,67.2
2016-11-26T05:48:38.457Z,66.72
2016-11-26T05:49:38.454Z,66.82
2016-11-26T05:50:38.472Z,66.05
2016-11-26T05:51:38.805Z,66.72
2016-11-26T05:52:38.507Z,67.55
2016-11-26T05:53:38.525Z,67.74
2016-11-26T05:54:38.547Z,67.83
2016-11-26T05:55:38.874Z,67.55
2016-11-26T05:56:38.577Z,67.64
2016-11-26T05:57:38.596Z,67.35
2016-11-26T05:58:38.931Z,67.16
2016-11-26T05:59:38.631Z,67.16
2016-11-26T06:00:38.964Z,67.45
2016-11-26T06:01:38.667Z,67.74
2016-11-26T06:02:39.001Z,68.12
2016-11-26T06:03:38.706Z,67.93
2016-11-26T06:04:39.045Z,68.59
2016-11-26T06:05:39.176Z,68.59
2016-11-26T06:06:39.079Z,68.3
2016-11-26T06:07:38.772Z,68.02
2016-11-26T06:08:38.789Z,67.74
2016-11-26T06:09:39.158Z,67.35
2016-11-26T06:10:38.826Z,67.35
2016-11-26T06:11:38.846Z,67.74
2016-11-26T06:12:39.177Z,67.83
2016-11-26T06:13:38.881Z,68.21
2016-11-26T06:14:39.212Z,68.21
2016-11-26T06:15:38.912Z,68.21
2016-11-26T06:16:38.933Z,68.21
2016-11-26T06:17:39.265Z,68.12
2016-11-26T06:18:38.966Z,68.12
2016-11-26T06:19:39.298Z,67.64
2016-11-26T06:20:39.324Z,67.45
2016-11-26T06:21:39.019Z,67.35
2016-11-26T06:22:39.352Z,67.93
2016-11-26T06:23:39.054Z,67.35
2016-11-26T06:24:39.390Z,67.26
2016-11-26T06:25:39.091Z,67.55
2016-11-26T06:26:39.105Z,67.35
2016-11-26T06:27:39.439Z,67.07
2016-11-26T06:28:39.459Z,67.74
2016-11-26T06:29:39.158Z,67.74
2016-11-26T06:30:39.176Z,67.35
2016-11-26T06:31:39.194Z,67.45
2016-11-26T06:32:39.544Z,67.16
2016-11-26T06:33:39.242Z,67.07
2016-11-26T06:34:39.247Z,67.55
2016-11-26T06:35:39.579Z,67.83
2016-11-26T06:36:39.283Z,67.07
2016-11-26T06:37:39.616Z,67.35
2016-11-26T06:38:39.321Z,67.16
2016-11-26T06:39:39.667Z,67.26
2016-11-26T06:40:39.369Z,66.88
2016-11-26T06:41:39.685Z,67.35
2016-11-26T06:42:39.392Z,67.45
2016-11-26T06:43:39.404Z,67.26
2016-11-26T06:44:39.422Z,67.16
2016-11-26T06:45:39.755Z,67.83
2016-11-26T06:46:39.458Z,68.65
2016-11-26T06:47:39.793Z,68.46
2016-11-26T06:48:39.810Z,68.65
2016-11-26T06:49:39.508Z,68.75
2016-11-26T06:50:39.526Z,68.75
2016-11-26T06:51:39.544Z,68.75
2016-11-26T06:52:39.562Z,69.51
2016-11-26T06:53:39.584Z,69.42
2016-11-26T06:54:39.913Z,69.23
2016-11-26T06:55:39.615Z,69.6
2016-11-26T06:56:39.631Z,69.6
2016-11-26T06:57:39.648Z,69.6
2016-11-26T06:58:39.983Z,69.79
2016-11-26T06:59:40.002Z,69.32
2016-11-26T07:00:39.701Z,68.75
2016-11-26T07:01:40.037Z,68.75
2016-11-26T07:02:39.740Z,68.3
2016-11-26T07:03:40.073Z,68.88
2016-11-26T07:04:39.773Z,69.04
2016-11-26T07:05:39.789Z,69.13
2016-11-26T07:06:39.806Z,69.6
2016-11-26T07:07:39.824Z,69.13
2016-11-26T07:08:39.843Z,69.42
2016-11-26T07:09:39.859Z,68.88
2016-11-26T07:10:39.880Z,68.84
2016-11-26T07:11:39.894Z,68.78
2016-11-26T07:12:40.261Z,68.69
2016-11-26T07:13:40.244Z,68.5
2016-11-26T07:14:39.946Z,68.5
2016-11-26T07:15:39.963Z,68.78
2016-11-26T07:16:40.297Z,68.5
2016-11-26T07:17:40.000Z,68.5
2016-11-26T07:18:40.017Z,68.21
2016-11-26T07:19:40.060Z,68.3
2016-11-26T07:20:40.048Z,67.74
2016-11-26T07:21:40.069Z,67.93
2016-11-26T07:22:40.091Z,68.02
2016-11-26T07:23:40.103Z,67.35
2016-11-26T07:24:40.138Z,67.93
2016-11-26T07:25:40.150Z,68.4
2016-11-26T07:26:40.156Z,68.02
2016-11-26T07:27:40.172Z,68.3
2016-11-26T07:28:40.187Z,67.93
2016-11-26T07:29:40.205Z,67.74
2016-11-26T07:30:40.222Z,68.18
2016-11-26T07:31:40.259Z,68.56
2016-11-26T07:32:40.275Z,68.27
2016-11-26T07:33:40.597Z,68.37
2016-11-26T07:34:40.610Z,68.56
2016-11-26T07:35:40.624Z,69.6
2016-11-26T07:36:40.332Z,69.23
2016-11-26T07:37:40.345Z,69.6
2016-11-26T07:38:40.364Z,69.7
2016-11-26T07:39:40.696Z,69.79
2016-11-26T07:40:40.716Z,69.79
2016-11-26T07:41:40.413Z,69.89
2016-11-26T07:42:40.434Z,69.99
2016-11-26T07:43:40.450Z,69.7
2016-11-26T07:44:40.471Z,69.42
2016-11-26T07:45:40.803Z,69.7
2016-11-26T07:46:40.506Z,70.27
2016-11-26T07:47:40.834Z,70.27
2016-11-26T07:48:40.537Z,70.08
2016-11-26T07:49:40.875Z,71.32
2016-11-26T07:50:40.577Z,71.03
2016-11-26T07:51:40.588Z,70.47
2016-11-26T07:52:40.921Z,70.65
2016-11-26T07:53:40.621Z,70.27
2016-11-26T07:54:40.959Z,70.47
2016-11-26T07:55:40.657Z,71.13
2016-11-26T07:56:40.988Z,70.65
2016-11-26T07:57:40.693Z,70.94
2016-11-26T07:58:40.709Z,70.84
2016-11-26T07:59:40.727Z,69.79
2016-11-26T08:00:40.744Z,69.89
2016-11-26T08:01:41.083Z,70.27
2016-11-26T08:02:41.094Z,70.27
2016-11-26T08:03:40.797Z,70.18
2016-11-26T08:04:40.813Z,69.93
2016-11-26T08:05:41.145Z,69.51
2016-11-26T08:06:41.162Z,69.35
2016-11-26T08:07:41.181Z,69.64
2016-11-26T08:08:41.206Z,69.45
2016-11-26T08:09:40.903Z,69.45
2016-11-26T08:10:41.231Z,69.74
2016-11-26T08:11:41.253Z,69.54
2016-11-26T08:12:40.953Z,69.45
2016-11-26T08:13:40.969Z,69.45
2016-11-26T08:14:41.304Z,69.64
2016-11-26T08:15:41.007Z,69.35
2016-11-26T08:16:41.025Z,69.35
2016-11-26T08:17:41.357Z,68.88
2016-11-26T08:18:41.056Z,69.07
2016-11-26T08:19:41.388Z,68.69
2016-11-26T08:20:41.406Z,68.59
2016-11-26T08:21:41.108Z,68.88
2016-11-26T08:22:41.126Z,68.4
2016-11-26T08:23:41.144Z,68.78
2016-11-26T08:24:41.185Z,68.78
2016-11-26T08:25:41.178Z,68.78
2016-11-26T08:26:41.511Z,68.3
2016-11-26T08:27:41.528Z,68.69
2016-11-26T08:28:41.233Z,68.69
2016-11-26T08:29:41.247Z,68.78
2016-11-26T08:30:41.269Z,68.59
2016-11-26T08:31:41.284Z,68.78
2016-11-26T08:32:41.343Z,68.88
2016-11-26T08:33:41.318Z,68.69
2016-11-26T08:34:41.654Z,69.17
2016-11-26T08:35:41.355Z,69.07
2016-11-26T08:36:41.373Z,68.69
2016-11-26T08:37:41.705Z,68.69
2016-11-26T08:38:41.407Z,68.69
2016-11-26T08:39:41.424Z,68.69
2016-11-26T08:40:41.454Z,68.12
2016-11-26T08:41:41.778Z,68.02
2016-11-26T08:42:41.479Z,68.3
2016-11-26T08:43:41.809Z,68.78
2016-11-26T08:44:41.512Z,68.3
2016-11-26T08:45:41.849Z,68.02
2016-11-26T08:46:41.552Z,68.21
2016-11-26T08:47:41.566Z,67.55
2016-11-26T08:48:41.605Z,67.93
2016-11-26T08:49:41.929Z,67.16
2016-11-26T08:50:41.936Z,67.45
2016-11-26T08:51:41.664Z,67.55
2016-11-26T08:52:41.656Z,67.16
2016-11-26T08:53:42.003Z,67.64
2016-11-26T08:54:41.691Z,67.55
2016-11-26T08:55:42.021Z,67.35
2016-11-26T08:56:41.725Z,67.64
2016-11-26T08:57:42.061Z,67.74
2016-11-26T08:58:42.074Z,67.07
2016-11-26T08:59:42.106Z,66.97
2016-11-26T09:00:41.801Z,66.97
2016-11-26T09:01:42.143Z,66.88
2016-11-26T09:02:42.147Z,67.16
2016-11-26T09:03:42.165Z,67.55
2016-11-26T09:04:41.866Z,67.64
2016-11-26T09:05:41.886Z,67.16
2016-11-26T09:06:41.902Z,66.97
2016-11-26T09:07:42.236Z,66.59
2016-11-26T09:08:42.068Z,67
2016-11-26T09:09:42.280Z,67
2016-11-26T09:10:41.973Z,67
2016-11-26T09:11:42.000Z,66.78
2016-11-26T09:12:42.008Z,66.44
2016-11-26T09:13:42.029Z,67
2016-11-26T09:14:42.086Z,67
2016-11-26T09:15:42.396Z,67
2016-11-26T09:16:42.094Z,66.63
2016-11-26T09:17:42.421Z,66.59
2016-11-26T09:18:42.430Z,66.02
2016-11-26T09:19:42.135Z,65.73
2016-11-26T09:20:42.467Z,65.73
2016-11-26T09:21:42.176Z,65.73
2016-11-26T09:22:42.191Z,66.21
2016-11-26T09:23:42.523Z,65.73
2016-11-26T09:24:42.221Z,65.92
2016-11-26T09:25:42.557Z,66.5
2016-11-26T09:26:42.256Z,65.92
2016-11-26T09:27:42.605Z,65.92
2016-11-26T09:28:42.292Z,66.5
2016-11-26T09:29:42.315Z,66.88
2016-11-26T09:30:42.644Z,66.11
2016-11-26T09:31:42.353Z,66.82
2016-11-26T09:32:42.361Z,66.88
2016-11-26T09:33:42.382Z,65.96
2016-11-26T09:34:42.716Z,65.58
2016-11-26T09:35:42.425Z,64.91
2016-11-26T09:36:42.433Z,65.1
2016-11-26T09:37:42.769Z,64.97
2016-11-26T09:38:42.783Z,65.16
2016-11-26T09:39:42.808Z,65.73
2016-11-26T09:40:42.820Z,65.64
2016-11-26T09:41:42.538Z,65.92
2016-11-26T09:42:42.539Z,65.92
2016-11-26T09:43:42.885Z,65.96
2016-11-26T09:44:42.578Z,65.67
2016-11-26T09:45:42.602Z,65.77
2016-11-26T09:46:42.617Z,65.48
2016-11-26T09:47:42.987Z,65.29
2016-11-26T09:48:42.964Z,65
2016-11-26T09:49:42.676Z,64.43
2016-11-26T09:50:42.683Z,64.43
2016-11-26T09:51:43.022Z,64.34
2016-11-26T09:52:43.038Z,64.62
2016-11-26T09:53:42.740Z,64.53
2016-11-26T09:54:42.754Z,64.72
2016-11-26T09:55:42.789Z,64.81
2016-11-26T09:56:43.120Z,65.2
2016-11-26T09:57:43.126Z,65.58
2016-11-26T09:58:43.140Z,64.81
2016-11-26T09:59:42.934Z,64.91
2016-11-26T10:00:42.868Z,64.81
2016-11-26T10:01:43.198Z,64.15
2016-11-26T10:02:43.212Z,63.76
2016-11-26T10:04:42.934Z,64.05
2016-11-26T10:05:42.958Z,64.34
2016-11-26T10:06:43.285Z,63.67
2016-11-26T10:07:43.314Z,63.57
2016-11-26T10:08:43.006Z,63.29
2016-11-26T10:09:43.026Z,63
2016-11-26T10:10:43.040Z,62.43
2016-11-26T10:11:43.062Z,63.29
2016-11-26T10:12:43.112Z,62.72
2016-11-26T10:13:43.097Z,63.29
2016-11-26T10:14:43.431Z,63
2016-11-26T10:15:43.154Z,62.34
2016-11-26T10:16:43.465Z,62.24
2016-11-26T10:17:43.167Z,63.1
2016-11-26T10:18:43.500Z,63.2
2016-11-26T10:19:43.522Z,62.52
2016-11-26T10:20:43.535Z,62.52
2016-11-26T10:21:43.247Z,62.62
2016-11-26T10:22:43.277Z,62.05
2016-11-26T10:23:43.287Z,61.96
2016-11-26T10:24:43.292Z,62.15
2016-11-26T10:25:43.629Z,61.96
2016-11-26T10:26:43.643Z,62.15
2016-11-26T10:27:43.348Z,62.62
2016-11-26T10:28:43.680Z,62.24
2016-11-26T10:29:43.412Z,62.52
2016-11-26T10:30:43.718Z,62.34
2016-11-26T10:31:43.418Z,62.52
2016-11-26T10:32:43.437Z,62.52
2016-11-26T10:33:43.469Z,62.72
2016-11-26T10:34:43.789Z,62.52
2016-11-26T10:35:43.809Z,62.24
2016-11-26T10:36:43.826Z,62.34
2016-11-26T10:37:43.842Z,61.96
2016-11-26T10:38:43.545Z,62.52
2016-11-26T10:39:43.566Z,62.34
2016-11-26T10:40:43.899Z,62.43
2016-11-26T10:41:43.606Z,62.24
2016-11-26T10:42:43.621Z,62.62
2016-11-26T10:43:43.959Z,63
2016-11-26T10:44:43.652Z,62.81
2016-11-26T10:45:43.673Z,62.91
2016-11-26T10:46:43.691Z,62.81
2016-11-26T10:47:44.030Z,62.43
2016-11-26T10:48:43.725Z,62.91
2016-11-26T10:49:43.745Z,63.2
2016-11-26T10:50:43.761Z,62.62
2016-11-26T10:51:43.789Z,62.15
2016-11-26T10:52:44.113Z,62.62
2016-11-26T10:53:43.818Z,63.2
2016-11-26T10:54:44.149Z,63
2016-11-26T10:55:44.170Z,63.39
2016-11-26T10:56:43.870Z,63.2
2016-11-26T10:57:43.896Z,62.91
2016-11-26T10:58:44.225Z,63
2016-11-26T10:59:44.244Z,62.52
2016-11-26T11:00:43.945Z,62.43
2016-11-26T11:01:43.962Z,62.24
2016-11-26T11:02:43.980Z,61.76
2016-11-26T11:03:44.383Z,61.86
2016-11-26T11:04:44.335Z,62.15
2016-11-26T11:05:44.351Z,61.76
2016-11-26T11:06:44.143Z,62.05
2016-11-26T11:07:44.402Z,61.96
2016-11-26T11:08:44.406Z,61.96
2016-11-26T11:09:44.119Z,61.86
2016-11-26T11:10:44.440Z,61.96
2016-11-26T11:11:44.143Z,61.96
2016-11-26T11:12:44.477Z,61.57
2016-11-26T11:13:44.501Z,61.76
2016-11-26T11:14:44.518Z,61.67
2016-11-26T11:15:44.535Z,62.05
2016-11-26T11:16:44.546Z,61.86
2016-11-26T11:17:44.249Z,61.76
2016-11-26T11:18:44.596Z,61.57
2016-11-26T11:19:44.619Z,61.67
2016-11-26T11:20:44.304Z,61.57
2016-11-26T11:21:44.352Z,61.1
2016-11-26T11:22:44.346Z,61.38
2016-11-26T11:23:44.680Z,61.38
2016-11-26T11:24:44.377Z,61.57
2016-11-26T11:25:44.723Z,61.67
2016-11-26T11:26:44.415Z,61.57
2016-11-26T11:27:44.750Z,61.19
2016-11-26T11:28:44.763Z,61.38
2016-11-26T11:29:44.469Z,61.57
2016-11-26T11:30:44.801Z,61.29
2016-11-26T11:31:44.503Z,61.38
2016-11-26T11:32:44.839Z,61.29
2016-11-26T11:33:44.558Z,61.67
2016-11-26T11:34:44.873Z,62.05
2016-11-26T11:35:44.778Z,61.86
2016-11-26T11:36:44.910Z,61.1
2016-11-26T11:37:44.943Z,61.38
2016-11-26T11:38:44.950Z,61.76
2016-11-26T11:39:44.654Z,61.19
2016-11-26T11:40:44.667Z,61.67
2016-11-26T11:41:45.001Z,61.38
2016-11-26T11:42:45.020Z,61.67
2016-11-26T11:43:44.727Z,61.57
2016-11-26T11:44:44.753Z,61.48
2016-11-26T11:45:44.786Z,62.05
2016-11-26T11:46:45.088Z,62.34
2016-11-26T11:47:45.113Z,61.67
2016-11-26T11:48:44.812Z,61.38
2016-11-26T11:49:44.830Z,61.38
2016-11-26T11:50:44.847Z,62.18
2016-11-26T11:51:45.182Z,62.05
2016-11-26T11:52:45.197Z,62.05
2016-11-26T11:53:44.923Z,61.51
2016-11-26T11:54:45.233Z,61.41
2016-11-26T11:55:44.935Z,60.46
2016-11-26T11:56:44.956Z,59.7
2016-11-26T11:57:44.972Z,60.36
2016-11-26T11:58:44.989Z,60.65
2016-11-26T11:59:45.007Z,60.84
2016-11-26T12:00:45.045Z,60.75
2016-11-26T12:01:45.357Z,60.36
2016-11-26T12:02:45.062Z,59.41
2016-11-26T12:03:45.081Z,59.99
2016-11-26T12:04:45.096Z,60.46
2016-11-26T12:05:45.117Z,60.27
2016-11-26T12:06:45.162Z,60.08
2016-11-26T12:07:45.465Z,60.55
2016-11-26T12:08:45.169Z,60.17
2016-11-26T12:09:45.187Z,60.27
2016-11-26T12:10:45.205Z,60.27
2016-11-26T12:11:45.225Z,60.55
2016-11-26T12:12:45.557Z,60.27
2016-11-26T12:13:45.258Z,60.36
2016-11-26T12:14:45.278Z,60.55
2016-11-26T12:15:45.294Z,60.46
2016-11-26T12:16:45.314Z,60.46
2016-11-26T12:17:45.647Z,60.08
2016-11-26T12:18:45.348Z,59.99
2016-11-26T12:19:45.367Z,60.24
2016-11-26T12:20:45.386Z,60.14
2016-11-26T12:21:45.405Z,60.36
2016-11-26T12:22:45.423Z,60.27
2016-11-26T12:23:45.754Z,60.55
2016-11-26T12:24:45.773Z,60.65
2016-11-26T12:25:45.791Z,60.55
2016-11-26T12:26:45.807Z,60.46
2016-11-26T12:27:45.823Z,60.94
2016-11-26T12:28:45.529Z,60.75
2016-11-26T12:29:45.865Z,61.51
2016-11-26T12:30:45.879Z,60.84
2016-11-26T12:31:45.582Z,60.36
2016-11-26T12:32:45.601Z,60.36
2016-11-26T12:33:45.934Z,60.27
2016-11-26T12:34:45.637Z,60.27
2016-11-26T12:35:45.653Z,60.65
2016-11-26T12:36:45.990Z,60.17
2016-11-26T12:37:46.004Z,60.55
2016-11-26T12:38:46.023Z,60.27
2016-11-26T12:39:46.043Z,60.65
2016-11-26T12:40:46.070Z,60.27
2016-11-26T12:41:45.764Z,60.36
2016-11-26T12:42:45.783Z,60.36
2016-11-26T12:43:45.807Z,60.17
2016-11-26T12:44:45.820Z,60.27
2016-11-26T12:45:46.149Z,60.46
2016-11-26T12:46:46.167Z,60.75
2016-11-26T12:47:46.194Z,60.55
2016-11-26T12:48:45.888Z,60.46
2016-11-26T12:49:46.223Z,60.36
2016-11-26T12:50:46.242Z,60.46
2016-11-26T12:51:46.259Z,60.08
2016-11-26T12:52:45.961Z,59.7
2016-11-26T12:53:46.304Z,60.36
2016-11-26T12:54:45.999Z,60.94
2016-11-26T12:55:46.352Z,60.84
2016-11-26T12:56:46.034Z,60.55
2016-11-26T12:57:46.050Z,60.27